Blue Hill Meteorological Observatory

42° 12' 44"N, 71° 06' 53"W, Elevation 635 ft.
Eastern Time

Hourly observations for the last 72 hours

Date Time Temperature (°F) Humi-
dity

(%)
Wind
(mph)
Pressure Rain (in) Sun
(W/m2)
ET
(in)
Air Dew 6 Hour 1 Hr 3 Hr 6 Hr Day
Alt
(in)
Sea
Level

(mb)
Max Min
18 21:00 44.4 38.0 78 NW 13 G 21 29.92 1013.1 0.00 0 0.093
18 20:00 45.8 38.3 75 NW 14 G 22 29.90 1012.5 0.00 0 0.091
18 19:00 46.3 38.8 56.4 46.3 75 NW 9 G 18 29.86 1011.4 0.00 0 0.089
18 18:00 48.0 39.1 71 WNW 11 G 17 29.85 1010.8 0.00 0 0.086
18 17:00 50.7 39.8 66 WNW 12 G 23 29.81 1009.6 0.00 0 0.082
18 16:00 53.4 40.7 62 WNW 15 G 26 29.79 1008.7 0.00 30 0.074
18 15:00 56.2 42.5 60 WNW 16 G 28 29.76 1007.8 0.00 279 0.064
18 14:00 54.2 42.3 64 WNW 16 G 24 29.74 1007.3 0.00 148 0.056
18 13:00 54.2 42.7 54.3 47.4 65 WNW 15 G 25 29.74 1007.0 0.00 206 0.047
18 12:00 53.7 42.6 66 WNW 19 G 27 29.73 1006.8 0.00 246 0.038
18 11:00 52.7 43.2 70 NW 14 G 28 29.72 1006.6 0.00 223 0.030
18 10:00 52.5 43.0 70 WNW 17 G 29 29.71 1006.2 0.00 322 0.021
18 09:00 50.1 42.8 76 W 19 G 28 29.70 1005.7 0.00 176 0.016
18 08:00 48.7 42.5 79 W 15 G 22 29.67 1004.8 0.00 158 0.013
18 07:00 47.4 42.2 47.4 44.6 82 W 14 G 19 29.65 1004.0 0.00 155 0.011
18 06:00 45.6 41.4 85 W 17 G 25 29.60 1002.4 0.00 0 0.010
18 05:00 45.0 40.8 85 W 17 G 29 29.57 1001.4 0.00 0 0.008
18 04:00 45.5 40.6 83 W 19 G 28 29.54 1000.4 0.00 0 0.006
18 03:00 45.5 40.6 83 W 15 G 27 29.51 999.4 0.00 0 0.004
18 02:00 45.6 40.4 82 W 16 G 21 29.49 998.8 0.00 0 0.002
18 01:00 46.7 40.5 48.7 46.5 79 W 17 G 26 29.47 998.1 0.00 0 0.000
18 00:00 47.3 41.1 79 W 14 G 23 29.45 997.5 0.79 0 0.087
17 23:00 48.0 41.1 77 W 18 G 27 29.42 996.2 0.78 0 0.084
17 22:00 48.6 41.4 76 W 14 G 23 29.39 995.3 0.78 0 0.081
17 21:00 47.9 41.0 77 W 20 G 31 29.35 993.9 0.78 0 0.078
17 20:00 47.8 40.6 76 W 28 G 37 29.30 992.3 0.78 0 0.075
17 19:00 48.2 42.0 51.3 47.9 79 W 23 G 34 29.26 991.1 0.78 0 0.072
17 18:00 48.5 42.6 80 W 25 G 35 29.22 989.4 0.78 0 0.069
17 17:00 48.7 42.5 79 W 24 G 42 29.17 987.9 0.78 0 0.065
17 16:00 49.5 42.3 76 W 24 G 40 29.14 986.8 0.78 46 0.059
17 15:00 50.9 42.9 74 WSW 31 G 41 29.10 985.3 0.78 162 0.052
17 14:00 49.9 43.7 79 WSW 29 G 50 29.06 984.1 0.78 186 0.047
17 13:00 50.5 43.9 51.0 46.7 78 WSW 21 G 43 29.04 983.4 0.78 100 0.040
17 12:00 50.2 43.3 77 WSW 23 G 45 29.03 983.2 0.78 123 0.034
17 11:00 50.1 43.5 78 WSW 25 G 45 29.02 982.8 0.78 118 0.027
17 10:00 49.6 44.0 81 WSW 25 G 41 29.02 982.7 0.78 211 0.019
17 09:00 50.6 43.0 75 WSW 25 G 37 29.02 982.6 0.78 271 0.010
17 08:00 47.6 42.1 81 SW 25 G 44 29.01 982.6 0.78 148 0.004
17 07:00 46.7 43.3 60.2 46.7 88 SW 31 G 49 28.98 981.3 0.02 0.38 0.78 46 0.002
17 06:00 47.4 46.0 95 SW 26 G 43 28.93 979.8 0.78 0 0.001
17 05:00 49.8 49.0 97 SW 25 G 39 28.86 977.5 0.02 0.78 0 0.001
17 04:00 56.7 55.9 97 SSW 16 G 24 28.83 976.3 0.36 0.76 0 0.001
17 03:00 57.7 56.9 97 SSE 21 G 29 28.81 975.7 0.76 0 0.001
17 02:00 60.0 59.4 98 SE 26 G 46 28.82 976.0 0.36 0.76 0 0.001
17 01:00 55.8 55.0 56.1 53.8 97 ENE 22 G 40 29.00 982.0 0.41 0.94 1.08 0.40 0 0.000
17 00:00 56.0 55.2 97 E 37 G 53 29.15 987.2 0.30 0.67 0 0.096
16 23:00 55.6 54.8 97 ESE 40 G 58 29.25 990.4 0.23 0.37 0 0.095
16 22:00 54.7 53.6 96 E 32 G 47 29.38 994.9 0.05 0.14 0.14 0 0.094
16 21:00 54.1 53.0 96 E 25 G 39 29.52 999.7 0.09 0.09 0 0.093
16 20:00 54.4 52.7 94 ESE 16 G 29 29.61 1002.9 0.00 0 0.092
16 19:00 53.8 51.5 58.4 52.7 92 ESE 19 G 30 29.68 1005.0 0.00 0 0.091
16 18:00 52.9 50.0 90 ESE 15 G 27 29.73 1006.8 0.00 0 0.090
16 17:00 52.8 49.3 88 ESE 16 G 24 29.78 1008.4 0.00 0 0.089
16 16:00 53.3 48.9 85 ESE 14 G 19 29.82 1009.9 0.00 37 0.086
16 15:00 54.7 49.0 81 ESE 16 G 23 29.86 1011.2 0.00 67 0.081
16 14:00 56.4 46.7 70 ESE 13 G 19 29.90 1012.5 0.00 199 0.073
16 13:00 58.0 45.9 60.4 49.2 64 ESE 14 G 18 29.93 1013.5 0.00 285 0.062
16 12:00 59.7 44.9 58 SE 12 G 18 29.95 1014.1 0.00 403 0.051
16 11:00 59.7 44.0 56 SE 13 G 20 29.98 1015.3 0.00 311 0.036
16 10:00 58.1 43.4 58 SSE 15 G 23 30.00 1016.1 0.00 533 0.023
16 09:00 55.9 45.9 69 SE 14 G 18 30.01 1016.2 0.00 413 0.014
16 08:00 51.8 46.5 82 SSE 13 G 17 30.06 1018.0 0.00 299 0.008
16 07:00 49.2 43.6 49.2 45.4 81 SSE 12 G 16 30.07 1018.3 0.00 127 0.006
16 06:00 47.5 42.3 82 S 9 G 12 30.08 1018.7 0.00 7 0.005
16 05:00 46.7 40.5 79 S 8 G 10 30.09 1018.9 0.00 0 0.004
16 04:00 47.9 41.0 77 SSW 7 G 10 30.10 1019.2 0.00 0 0.003
16 03:00 45.4 39.6 80 SSW 9 G 12 30.09 1018.9 0.00 0 0.002
16 02:00 47.5 39.6 74 SSW 7 G 11 30.10 1019.5 0.00 0 0.001
16 01:00 46.6 41.4 49.8 46.3 82 S 6 G 11 30.10 1019.3 0.00 0 0.000
16 00:00 48.2 42.0 79 SSE 9 G 11 30.10 1019.4 0.00 0 0.118
15 23:00 48.0 41.1 77 S 5 G 7 30.11 1019.7 0.00 0 0.117
15 22:00 47.5 41.6 80 SSW 4 G 9 30.13 1020.3 0.00 0 0.116

Data generated by WxSolution Version 1.9.1.5, Build 2018.05.20.